Calgary, Canada
Current Conditions -  °F | °C
As of 9:00 AM on Monday 24 Nov 2014 (Local Time) from CYYC Reporting Station
Few Clouds Few Clouds  
Wind Chill: -5°   Ceiling: Unl
Heat Index: -2°   Visibility: 40mi
Dew Point: -7°   Wind: 6mph
Humidity: 69%   Direction: 220°SW
Pressure: 30.01"   Gusts: NA
Location:  51.05°N, 114.06°W
Report Text: CYYC 241600Z 22005KT 40SM FEW110 M02/M07 A3001 RMK AC2 SLP209
Loading
Personal Weather Stations






























Interactive Weather Map New forecast layout! Learn more

10-Day Weather Forecast

Advertisements
Track Severe Weather on mobile